createdAt,value
2018-07-19T00:06:18.894Z,20.30
2018-07-19T00:08:49.447Z,20.30
2018-07-19T00:11:19.958Z,20.30
2018-07-19T00:13:50.835Z,20.20
2018-07-19T00:16:22.541Z,20.00
2018-07-19T00:18:53.524Z,20.00
2018-07-19T00:21:23.932Z,20.00
2018-07-19T00:23:54.393Z,20.00
2018-07-19T00:26:25.649Z,20.00
2018-07-19T00:28:56.215Z,19.90
2018-07-19T00:31:26.750Z,19.90
2018-07-19T00:33:57.888Z,19.80
2018-07-19T00:36:29.336Z,19.80
2018-07-19T00:38:59.976Z,19.80
2018-07-19T00:41:30.552Z,19.70
2018-07-19T00:44:01.112Z,19.60
2018-07-19T00:46:31.718Z,19.60
2018-07-19T00:49:02.324Z,19.60
2018-07-19T00:51:32.933Z,19.60
2018-07-19T00:54:04.672Z,19.50
2018-07-19T00:56:35.589Z,19.50
2018-07-19T00:59:06.242Z,19.50
2018-07-19T01:01:36.690Z,19.40
2018-07-19T01:04:07.610Z,19.40
2018-07-19T01:06:38.160Z,19.40
2018-07-19T01:09:11.730Z,19.30
2018-07-19T01:11:43.066Z,19.30
2018-07-19T01:14:13.668Z,19.30
2018-07-19T01:16:44.554Z,19.20
2018-07-19T01:19:15.157Z,19.20
2018-07-19T01:21:45.702Z,19.10
2018-07-19T01:24:16.269Z,19.00
2018-07-19T01:26:46.878Z,19.00
2018-07-19T01:31:48.407Z,18.90
2018-07-19T01:34:18.973Z,18.90
2018-07-19T01:36:49.725Z,18.90
2018-07-19T01:39:20.352Z,18.90
2018-07-19T01:42:33.340Z,18.90
2018-07-19T01:45:05.164Z,18.80
2018-07-19T01:47:36.515Z,18.80
2018-07-19T01:50:08.812Z,18.80
2018-07-19T01:52:39.662Z,18.80
2018-07-19T01:55:10.356Z,18.80
2018-07-19T01:57:40.891Z,18.80
2018-07-19T02:00:11.603Z,18.70
2018-07-19T02:02:42.272Z,18.60
2018-07-19T02:05:13.727Z,18.50
2018-07-19T02:07:44.761Z,18.50
2018-07-19T02:10:15.568Z,18.50
2018-07-19T02:12:45.987Z,18.50
2018-07-19T02:15:16.521Z,18.50
2018-07-19T02:17:47.198Z,18.40
2018-07-19T02:20:17.750Z,18.30
2018-07-19T02:22:48.342Z,18.10
2018-07-19T02:25:18.962Z,18.10
2018-07-19T02:27:50.071Z,18.10
2018-07-19T02:30:20.533Z,18.10
2018-07-19T02:32:51.050Z,18.10
2018-07-19T02:35:21.500Z,18.10
2018-07-19T02:37:52.202Z,18.10
2018-07-19T02:40:22.974Z,18.10
2018-07-19T02:42:53.489Z,18.10
2018-07-19T02:45:24.006Z,18.00
2018-07-19T02:47:54.603Z,18.00
2018-07-19T02:50:25.603Z,17.90
2018-07-19T02:52:56.921Z,18.00
2018-07-19T02:55:27.381Z,17.90
2018-07-19T02:57:57.795Z,17.90
2018-07-19T03:00:28.373Z,17.90
2018-07-19T03:02:59.029Z,17.90
2018-07-19T03:05:29.721Z,17.90
2018-07-19T03:08:00.042Z,17.80
2018-07-19T03:10:30.527Z,17.80
2018-07-19T03:15:32.810Z,17.80
2018-07-19T03:18:03.306Z,17.80
2018-07-19T03:20:34.002Z,17.80
2018-07-19T03:23:04.623Z,17.70
2018-07-19T03:25:35.318Z,17.60
2018-07-19T03:28:05.836Z,17.50
2018-07-19T03:30:37.017Z,17.50
2018-07-19T03:33:08.576Z,17.50
2018-07-19T03:35:39.132Z,17.50
2018-07-19T03:38:09.647Z,17.50
2018-07-19T03:40:40.161Z,17.60
2018-07-19T03:43:11.468Z,17.50
2018-07-19T03:45:41.950Z,17.50
2018-07-19T03:48:12.576Z,17.60
2018-07-19T03:50:44.028Z,17.40
2018-07-19T03:53:15.213Z,17.30
2018-07-19T03:55:45.882Z,17.20
2018-07-19T03:58:16.563Z,17.20
2018-07-19T04:00:47.328Z,17.20
2018-07-19T04:03:17.915Z,17.30
2018-07-19T04:05:48.422Z,17.40
2018-07-19T04:08:19.467Z,17.40
2018-07-19T04:10:50.713Z,17.50
2018-07-19T04:13:21.678Z,17.60
2018-07-19T04:15:52.208Z,17.60
2018-07-19T04:18:22.826Z,17.50
2018-07-19T04:23:23.311Z,17.70
2018-07-19T04:25:53.882Z,17.80
2018-07-19T04:28:24.436Z,17.80
2018-07-19T04:30:56.055Z,17.90
2018-07-19T04:33:26.802Z,17.90
2018-07-19T04:35:57.365Z,17.90
2018-07-19T04:38:27.973Z,17.90
2018-07-19T04:40:58.518Z,17.90
2018-07-19T04:43:29.319Z,17.90
2018-07-19T04:45:59.866Z,17.90
2018-07-19T04:48:30.632Z,17.90
2018-07-19T04:51:02.418Z,17.90
2018-07-19T04:53:33.053Z,17.90
2018-07-19T04:56:03.465Z,18.00
2018-07-19T04:58:34.223Z,18.00
2018-07-19T05:01:04.928Z,18.00
2018-07-19T05:03:35.633Z,18.10
2018-07-19T05:06:06.304Z,18.10
2018-07-19T05:08:37.744Z,18.20
2018-07-19T05:11:08.809Z,18.20
2018-07-19T05:16:09.903Z,18.40
2018-07-19T05:18:40.737Z,18.60
2018-07-19T05:21:11.434Z,18.70
2018-07-19T05:23:42.066Z,18.70
2018-07-19T05:26:13.585Z,18.80
2018-07-19T05:28:46.200Z,19.00
2018-07-19T05:31:16.944Z,19.20
2018-07-19T05:33:48.503Z,19.50
2018-07-19T05:36:19.278Z,19.60
2018-07-19T05:38:50.940Z,19.80
2018-07-19T05:41:21.473Z,20.00
2018-07-19T05:43:52.384Z,19.90
2018-07-19T05:46:24.748Z,20.10
2018-07-19T05:48:55.305Z,20.20
2018-07-19T05:51:26.331Z,20.30
2018-07-19T05:53:56.915Z,20.40
2018-07-19T05:56:27.670Z,20.60
2018-07-19T05:58:58.327Z,20.80
2018-07-19T06:01:28.880Z,21.00
2018-07-19T06:04:00.868Z,21.20
2018-07-19T06:06:32.285Z,21.40
2018-07-19T06:11:33.256Z,21.70
2018-07-19T06:14:06.105Z,21.90
2018-07-19T06:16:36.853Z,22.00
2018-07-19T06:19:08.031Z,22.20
2018-07-19T06:21:40.076Z,22.40
2018-07-19T06:24:11.480Z,22.80
2018-07-19T06:26:42.566Z,23.20
2018-07-19T06:29:13.652Z,23.60
2018-07-19T06:31:44.587Z,24.00
2018-07-19T06:34:16.053Z,24.40
2018-07-19T06:36:46.925Z,24.70
2018-07-19T06:39:18.734Z,25.00
2018-07-19T06:41:50.089Z,25.20
2018-07-19T06:46:51.690Z,25.60
2018-07-19T06:49:22.746Z,25.70
2018-07-19T06:51:54.031Z,25.90
2018-07-19T06:54:24.986Z,26.10
2018-07-19T06:57:01.317Z,26.40
2018-07-19T06:59:34.591Z,26.50
2018-07-19T07:02:06.937Z,26.50
2018-07-19T07:04:38.392Z,26.70
2018-07-19T07:07:09.707Z,26.80
2018-07-19T07:09:43.753Z,26.90
2018-07-19T07:14:53.084Z,27.40
2018-07-19T07:17:24.055Z,27.50
2018-07-19T07:19:58.587Z,27.70
2018-07-19T07:22:29.901Z,27.90
2018-07-19T07:25:01.832Z,28.00
2018-07-19T07:27:34.061Z,28.30
2018-07-19T07:30:06.112Z,28.50
2018-07-19T07:32:36.968Z,28.70
2018-07-19T07:35:09.263Z,28.80
2018-07-19T07:37:40.631Z,29.00
2018-07-19T07:42:44.042Z,29.30
2018-07-19T07:45:16.012Z,29.80
2018-07-19T07:47:47.837Z,30.00
2018-07-19T07:50:19.322Z,30.20
2018-07-19T07:55:20.791Z,30.00
2018-07-19T07:57:52.511Z,29.60
2018-07-19T08:00:24.639Z,29.40
2018-07-19T08:02:56.464Z,29.10
2018-07-19T08:05:27.576Z,28.90
2018-07-19T08:07:58.523Z,28.80
2018-07-19T08:10:29.691Z,28.70
2018-07-19T08:13:00.521Z,28.70
2018-07-19T08:15:31.765Z,29.20
2018-07-19T08:18:03.645Z,30.00
2018-07-19T08:20:35.828Z,30.40
2018-07-19T08:23:08.080Z,30.30
2018-07-19T08:25:39.529Z,29.90
2018-07-19T08:28:10.580Z,29.80
2018-07-19T08:30:43.696Z,30.20
2018-07-19T08:33:14.754Z,30.60
2018-07-19T08:35:48.211Z,31.00
2018-07-19T08:38:19.183Z,31.60
2018-07-19T08:40:51.810Z,32.30
2018-07-19T08:43:23.819Z,32.90
2018-07-19T08:45:55.149Z,33.60
2018-07-19T08:48:26.507Z,33.70
2018-07-19T08:50:58.579Z,33.80
2018-07-19T08:53:30.851Z,34.10
2018-07-19T08:58:31.577Z,35.00
2018-07-19T09:01:02.489Z,35.50
2018-07-19T09:03:33.983Z,35.60
2018-07-19T09:06:06.028Z,35.90
2018-07-19T09:08:45.456Z,35.70
2018-07-19T09:11:18.748Z,35.50
2018-07-19T09:13:52.603Z,35.60
2018-07-19T09:16:23.860Z,34.70
2018-07-19T09:18:55.132Z,34.80
2018-07-19T09:21:31.082Z,34.60
2018-07-19T09:24:04.559Z,34.90
2018-07-19T09:26:36.229Z,34.90
2018-07-19T09:29:09.547Z,35.30
2018-07-19T09:31:40.940Z,35.80
2018-07-19T09:34:12.210Z,35.90
2018-07-19T09:36:44.047Z,36.10
2018-07-19T09:39:15.641Z,36.40
2018-07-19T09:41:48.870Z,37.00
2018-07-19T09:44:20.122Z,37.30
2018-07-19T09:46:53.159Z,37.60
2018-07-19T09:49:24.625Z,37.40
2018-07-19T09:51:57.100Z,37.10
2018-07-19T09:54:44.460Z,37.30
2018-07-19T09:57:15.959Z,37.20
2018-07-19T09:59:47.768Z,37.30
2018-07-19T10:02:20.493Z,36.80
2018-07-19T10:04:52.585Z,36.80
2018-07-19T10:07:26.576Z,36.90
2018-07-19T10:09:58.891Z,36.70
2018-07-19T10:12:33.562Z,35.60
2018-07-19T10:15:07.032Z,35.90
2018-07-19T10:17:40.109Z,36.40
2018-07-19T10:20:13.332Z,37.10
2018-07-19T10:22:46.102Z,37.10
2018-07-19T10:25:19.652Z,35.20
2018-07-19T10:27:51.085Z,34.60
2018-07-19T10:32:55.562Z,35.20
2018-07-19T10:35:26.780Z,35.00
2018-07-19T10:37:57.906Z,35.40
2018-07-19T10:40:30.081Z,36.30
2018-07-19T10:43:01.501Z,36.60
2018-07-19T10:45:33.402Z,36.60
2018-07-19T10:48:09.768Z,36.70
2018-07-19T10:50:40.995Z,36.40
2018-07-19T10:55:42.435Z,37.40
2018-07-19T10:58:59.376Z,36.80
2018-07-19T11:01:33.397Z,35.80
2018-07-19T11:06:36.352Z,34.60
2018-07-19T11:09:11.344Z,35.60
2018-07-19T11:11:43.664Z,34.70
2018-07-19T11:14:15.971Z,35.40
2018-07-19T11:16:48.530Z,36.40
2018-07-19T11:19:19.790Z,35.70
2018-07-19T11:24:25.523Z,37.10
2018-07-19T11:26:56.527Z,37.50
2018-07-19T11:29:27.856Z,38.00
2018-07-19T11:31:59.600Z,38.00
2018-07-19T11:34:31.237Z,38.40
2018-07-19T11:37:04.249Z,37.80
2018-07-19T11:39:34.960Z,35.50
2018-07-19T11:42:05.926Z,34.10
2018-07-19T11:44:37.692Z,34.00
2018-07-19T11:47:12.186Z,34.50
2018-07-19T11:49:44.623Z,34.50
2018-07-19T11:54:49.096Z,34.10
2018-07-19T11:57:24.396Z,34.80
2018-07-19T11:59:56.384Z,36.30
2018-07-19T12:02:29.177Z,37.00
2018-07-19T12:05:00.975Z,37.30
2018-07-19T12:07:32.603Z,36.10
2018-07-19T12:10:04.742Z,36.20
2018-07-19T12:12:35.831Z,36.20
2018-07-19T12:15:07.042Z,37.20
2018-07-19T12:17:37.877Z,38.10
2018-07-19T12:20:10.153Z,38.30
2018-07-19T12:22:41.765Z,36.00
2018-07-19T12:25:12.828Z,36.20
2018-07-19T12:27:43.574Z,35.40
2018-07-19T12:30:15.661Z,35.50
2018-07-19T12:32:47.337Z,35.90
2018-07-19T12:35:20.553Z,34.70
2018-07-19T12:37:53.005Z,35.40
2018-07-19T12:40:27.283Z,35.10
2018-07-19T12:42:58.427Z,35.80
2018-07-19T12:45:31.749Z,36.90
2018-07-19T12:48:03.133Z,37.20
2018-07-19T12:53:08.731Z,37.10
2018-07-19T12:55:40.330Z,36.00
2018-07-19T12:58:11.623Z,35.60
2018-07-19T13:00:42.813Z,35.20
2018-07-19T13:03:13.922Z,35.20
2018-07-19T13:05:44.999Z,36.20
2018-07-19T13:08:16.273Z,35.90
2018-07-19T13:10:49.062Z,35.90
2018-07-19T13:13:21.702Z,35.50
2018-07-19T13:15:53.594Z,35.90
2018-07-19T13:18:24.387Z,36.00
2018-07-19T13:20:57.019Z,35.30
2018-07-19T13:23:29.584Z,34.70
2018-07-19T13:26:04.008Z,34.40
2018-07-19T13:28:36.258Z,34.10
2018-07-19T13:31:12.600Z,33.80
2018-07-19T13:33:43.838Z,34.90
2018-07-19T13:36:14.881Z,36.00
2018-07-19T13:38:47.209Z,35.70
2018-07-19T13:41:18.720Z,35.40
2018-07-19T13:49:22.966Z,34.80
2018-07-19T13:51:53.895Z,34.70
2018-07-19T13:54:43.342Z,35.00
2018-07-19T13:57:14.526Z,35.10
2018-07-19T13:59:45.957Z,35.20
2018-07-19T14:04:47.895Z,33.40
2018-07-19T14:07:18.610Z,33.20
2018-07-19T14:09:49.642Z,32.90
2018-07-19T14:12:21.050Z,32.80
2018-07-19T14:14:51.666Z,32.60
2018-07-19T14:17:22.319Z,33.00
2018-07-19T14:19:53.154Z,32.80
2018-07-19T14:22:23.642Z,32.40
2018-07-19T14:24:54.191Z,32.20
2018-07-19T14:27:24.805Z,32.10
2018-07-19T14:29:55.950Z,32.60
2018-07-19T14:32:28.138Z,32.70
2018-07-19T14:34:59.173Z,32.90
2018-07-19T14:37:29.909Z,33.00
2018-07-19T14:40:00.598Z,32.80
2018-07-19T14:42:31.117Z,32.70
2018-07-19T14:45:01.796Z,32.20
2018-07-19T14:47:32.642Z,32.10
2018-07-19T14:50:04.585Z,31.90
2018-07-19T14:52:35.352Z,31.60
2018-07-19T14:55:06.799Z,31.10
2018-07-19T14:57:37.551Z,31.40
2018-07-19T15:00:09.088Z,31.10
2018-07-19T15:02:40.198Z,30.80
2018-07-19T15:05:11.436Z,30.40
2018-07-19T15:07:44.018Z,30.00
2018-07-19T15:10:14.955Z,29.90
2018-07-19T15:12:45.762Z,29.90
2018-07-19T15:15:16.620Z,29.60
2018-07-19T15:17:47.472Z,29.60
2018-07-19T15:20:18.067Z,29.90
2018-07-19T15:22:49.067Z,29.70
2018-07-19T15:25:22.033Z,29.80
2018-07-19T15:27:54.017Z,29.80
2018-07-19T15:30:25.775Z,29.70
2018-07-19T15:32:56.541Z,29.70
2018-07-19T15:35:28.364Z,29.70
2018-07-19T15:37:59.125Z,29.80
2018-07-19T15:40:31.170Z,29.80
2018-07-19T15:43:04.245Z,30.10
2018-07-19T15:45:37.619Z,30.50
2018-07-19T15:48:09.558Z,30.40
2018-07-19T15:50:41.036Z,30.20
2018-07-19T15:53:12.215Z,30.20
2018-07-19T15:55:43.050Z,30.60
2018-07-19T15:58:14.544Z,30.30
2018-07-19T16:00:46.557Z,30.40
2018-07-19T16:03:17.252Z,30.40
2018-07-19T16:05:47.774Z,30.20
2018-07-19T16:08:18.993Z,30.20
2018-07-19T16:10:50.041Z,30.40
2018-07-19T16:13:20.797Z,30.60
2018-07-19T16:15:51.617Z,30.70
2018-07-19T16:20:53.631Z,30.80
2018-07-19T16:23:24.401Z,30.80
2018-07-19T16:28:25.577Z,30.70
2018-07-19T16:30:56.379Z,30.70
2018-07-19T16:33:26.993Z,30.80
2018-07-19T16:35:58.931Z,30.80
2018-07-19T16:38:34.435Z,30.90
2018-07-19T16:41:05.772Z,30.80
2018-07-19T16:43:37.705Z,30.70
2018-07-19T16:46:08.805Z,30.50
2018-07-19T16:48:39.361Z,30.40
2018-07-19T16:51:10.395Z,30.50
2018-07-19T16:53:43.120Z,30.40
2018-07-19T16:56:13.731Z,30.40
2018-07-19T16:58:44.405Z,30.40
2018-07-19T17:01:15.422Z,30.30
2018-07-19T17:06:16.684Z,30.30
2018-07-19T17:08:47.266Z,30.20
2018-07-19T17:11:18.349Z,30.10
2018-07-19T17:13:51.381Z,29.90
2018-07-19T17:16:22.977Z,30.00
2018-07-19T17:18:53.657Z,30.00
2018-07-19T17:21:24.528Z,29.90
2018-07-19T17:23:55.102Z,29.70
2018-07-19T17:26:25.800Z,29.80
2018-07-19T17:28:56.533Z,29.90
2018-07-19T17:31:28.346Z,29.70
2018-07-19T17:33:59.198Z,29.60
2018-07-19T17:39:00.373Z,29.70
2018-07-19T17:41:32.237Z,29.90
2018-07-19T17:44:03.065Z,29.70
2018-07-19T17:46:34.377Z,29.50
2018-07-19T17:49:07.076Z,29.50
2018-07-19T17:51:39.408Z,29.60
2018-07-19T17:54:10.433Z,29.60
2018-07-19T17:56:41.541Z,29.50
2018-07-19T17:59:12.885Z,29.40
2018-07-19T18:01:43.927Z,29.40
2018-07-19T18:04:15.655Z,29.50
2018-07-19T18:06:47.578Z,29.50
2018-07-19T18:09:18.960Z,29.50
2018-07-19T18:11:49.823Z,29.40
2018-07-19T18:16:52.261Z,29.00
2018-07-19T18:19:23.863Z,28.90
2018-07-19T18:21:54.755Z,28.60
2018-07-19T18:24:26.267Z,28.50
2018-07-19T18:26:58.632Z,28.60
2018-07-19T18:29:30.217Z,28.60
2018-07-19T18:34:31.267Z,28.50
2018-07-19T18:37:02.210Z,28.50
2018-07-19T18:39:33.588Z,28.40
2018-07-19T18:42:05.316Z,28.20
2018-07-19T18:44:38.346Z,28.00
2018-07-19T18:47:09.839Z,27.80
2018-07-19T18:49:42.628Z,27.60
2018-07-19T18:52:14.307Z,27.30
2018-07-19T18:54:45.882Z,27.10
2018-07-19T18:57:17.952Z,26.90
2018-07-19T18:59:52.580Z,26.90
2018-07-19T19:02:24.306Z,26.80
2018-07-19T19:04:56.272Z,26.60
2018-07-19T19:07:29.076Z,26.50
2018-07-19T19:10:00.703Z,26.30
2018-07-19T19:12:32.431Z,26.30
2018-07-19T19:15:05.335Z,26.20
2018-07-19T19:17:39.353Z,26.20
2018-07-19T19:20:11.929Z,26.10
2018-07-19T19:22:44.108Z,25.90
2018-07-19T19:25:17.108Z,25.70
2018-07-19T19:27:49.416Z,25.70
2018-07-19T19:30:26.006Z,25.80
2018-07-19T19:32:57.563Z,25.70
2018-07-19T19:35:30.860Z,25.60
2018-07-19T19:38:07.931Z,25.40
2018-07-19T19:40:41.167Z,25.20
2018-07-19T19:43:13.975Z,25.00
2018-07-19T19:45:48.082Z,24.70
2018-07-19T19:48:20.845Z,24.40
2018-07-19T19:50:53.613Z,24.20
2018-07-19T19:53:28.405Z,24.00
2018-07-19T19:56:01.401Z,23.90
2018-07-19T19:58:33.709Z,23.80
2018-07-19T20:01:05.526Z,23.80
2018-07-19T20:03:37.959Z,23.80
2018-07-19T20:06:11.712Z,23.90
2018-07-19T20:08:45.494Z,23.90
2018-07-19T20:11:19.214Z,23.80
2018-07-19T20:13:52.685Z,23.70
2018-07-19T20:16:24.578Z,23.50
2018-07-19T20:18:56.307Z,23.40
2018-07-19T20:21:27.927Z,23.30
2018-07-19T20:24:00.956Z,23.20
2018-07-19T20:26:33.418Z,23.10
2018-07-19T20:29:04.786Z,23.00
2018-07-19T20:31:36.852Z,23.00
2018-07-19T20:34:09.727Z,23.00
2018-07-19T20:36:41.473Z,23.00
2018-07-19T20:39:13.659Z,23.10
2018-07-19T20:41:46.807Z,23.10
2018-07-19T20:44:19.095Z,23.20
2018-07-19T20:46:51.154Z,23.20
2018-07-19T20:49:22.842Z,23.20
2018-07-19T20:51:55.087Z,23.30
2018-07-19T20:54:27.842Z,23.20
2018-07-19T20:57:00.165Z,23.20
2018-07-19T20:59:31.239Z,23.20
2018-07-19T21:02:03.410Z,23.20
2018-07-19T21:04:36.112Z,23.00
2018-07-19T21:07:07.004Z,23.00
2018-07-19T21:09:38.384Z,23.00
2018-07-19T21:12:13.658Z,22.90
2018-07-19T21:14:47.475Z,22.90
2018-07-19T21:17:19.134Z,22.80
2018-07-19T21:19:50.317Z,22.80
2018-07-19T21:22:21.274Z,22.60
2018-07-19T21:24:52.495Z,22.60
2018-07-19T21:27:24.790Z,22.60
2018-07-19T21:29:55.701Z,22.50
2018-07-19T21:32:26.401Z,22.40
2018-07-19T21:34:57.235Z,22.30
2018-07-19T21:37:28.186Z,22.20
2018-07-19T21:39:58.917Z,22.10
2018-07-19T21:42:29.811Z,22.10
2018-07-19T21:45:02.398Z,22.00
2018-07-19T21:47:34.740Z,21.90
2018-07-19T21:50:05.881Z,21.90
2018-07-19T21:52:44.944Z,21.90
2018-07-19T21:55:16.020Z,21.80
2018-07-19T21:57:47.052Z,21.70
2018-07-19T22:00:19.648Z,21.60
2018-07-19T22:02:50.840Z,21.60
2018-07-19T22:05:21.938Z,21.50
2018-07-19T22:07:52.689Z,21.50
2018-07-19T22:10:25.356Z,21.60
2018-07-19T22:12:57.035Z,21.50
2018-07-19T22:15:28.470Z,21.60
2018-07-19T22:18:00.740Z,21.60
2018-07-19T22:20:31.564Z,21.50
2018-07-19T22:23:02.717Z,21.60
2018-07-19T22:25:34.208Z,21.40
2018-07-19T22:28:05.544Z,21.30
2018-07-19T22:30:36.438Z,21.30
2018-07-19T22:35:38.780Z,21.00
2018-07-19T22:38:11.510Z,20.90
2018-07-19T22:40:42.212Z,20.90
2018-07-19T22:43:13.309Z,20.90
2018-07-19T22:45:44.059Z,20.90
2018-07-19T22:48:15.164Z,20.90
2018-07-19T22:50:46.097Z,20.80
2018-07-19T22:53:17.435Z,20.80
2018-07-19T22:58:19.349Z,20.80
2018-07-19T23:00:50.193Z,20.80
2018-07-19T23:03:21.213Z,20.80
2018-07-19T23:05:52.164Z,20.80
2018-07-19T23:08:23.115Z,20.80
2018-07-19T23:10:53.978Z,20.60
2018-07-19T23:13:25.584Z,20.60
2018-07-19T23:18:28.022Z,20.60
2018-07-19T23:20:58.790Z,20.70
2018-07-19T23:23:29.497Z,20.50
2018-07-19T23:26:00.617Z,20.40
2018-07-19T23:28:31.583Z,20.30
2018-07-19T23:31:02.313Z,20.20
2018-07-19T23:33:34.265Z,20.20
2018-07-19T23:38:42.496Z,20.10
2018-07-19T23:41:20.222Z,19.90
2018-07-19T23:43:55.153Z,19.90
2018-07-19T23:46:31.633Z,19.90
2018-07-19T23:49:08.256Z,19.90
2018-07-19T23:51:39.701Z,19.90
2018-07-19T23:54:10.589Z,19.80
2018-07-19T23:56:41.919Z,19.70
2018-07-19T23:59:13.682Z,19.70
